sensor_id;sensor_type;location;lat;lon;timestamp;pressure;altitude;pressure_sealevel;temperature;humidity
73306;BME280;61530;51.158;0.880;2022-12-18T00:00:14;1020.43;;;2.625;34.4704
73306;BME280;61530;51.158;0.880;2022-12-18T00:01:19;1020.39;;;2.6875;34.4543
73306;BME280;61530;51.158;0.880;2022-12-18T00:02:21;1020.37;;;2.6875;33.9214
73306;BME280;61530;51.158;0.880;2022-12-18T00:03:25;1020.32;;;2.6875;34.7424
73306;BME280;61530;51.158;0.880;2022-12-18T00:04:29;1020.33;;;2.6875;34.5661
73306;BME280;61530;51.158;0.880;2022-12-18T00:05:32;1020.28;;;2.6875;34.6936
73306;BME280;61530;51.158;0.880;2022-12-18T00:06:37;1020.28;;;2.6875;34.5896
73306;BME280;61530;51.158;0.880;2022-12-18T00:07:40;1020.23;;;2.6875;34.9707
73306;BME280;61530;51.158;0.880;2022-12-18T00:08:47;1020.23;;;2.6875;34.5022
73306;BME280;61530;51.158;0.880;2022-12-18T00:09:49;1020.26;;;2.6875;34.357
73306;BME280;61530;51.158;0.880;2022-12-18T00:10:53;1020.31;;;2.6875;34.1001
73306;BME280;61530;51.158;0.880;2022-12-18T00:11:59;1020.4;;;2.6875;34.2658
73306;BME280;61530;51.158;0.880;2022-12-18T00:13:02;1020.46;;;2.6875;34.3851
73306;BME280;61530;51.158;0.880;2022-12-18T00:14:05;1020.48;;;2.625;34.0396
73306;BME280;61530;51.158;0.880;2022-12-18T00:15:09;1020.51;;;2.6875;34.1567
73306;BME280;61530;51.158;0.880;2022-12-18T00:16:15;1020.43;;;2.6875;34.999
73306;BME280;61530;51.158;0.880;2022-12-18T00:17:17;1020.42;;;2.6875;34.7417
73306;BME280;61530;51.158;0.880;2022-12-18T00:18:20;1020.36;;;2.6875;34.6347
73306;BME280;61530;51.158;0.880;2022-12-18T00:19:25;1020.29;;;2.625;36.0065
73306;BME280;61530;51.158;0.880;2022-12-18T00:20:29;1020.23;;;2.625;35.4895
73306;BME280;61530;51.158;0.880;2022-12-18T00:21:34;1020.16;;;2.6875;34.5382
73306;BME280;61530;51.158;0.880;2022-12-18T00:22:37;1020.16;;;2.75;34.4818
73306;BME280;61530;51.158;0.880;2022-12-18T00:23:43;1020.14;;;2.6875;34.8851
73306;BME280;61530;51.158;0.880;2022-12-18T00:24:44;1020.14;;;2.6875;34.532
73306;BME280;61530;51.158;0.880;2022-12-18T00:25:49;1020.11;;;2.6875;34.6458
73306;BME280;61530;51.158;0.880;2022-12-18T00:26:53;1020.13;;;2.6875;35.7017
73306;BME280;61530;51.158;0.880;2022-12-18T00:27:57;1020.15;;;2.75;35.3257
73306;BME280;61530;51.158;0.880;2022-12-18T00:29:02;1020.15;;;2.6875;35.0757
73306;BME280;61530;51.158;0.880;2022-12-18T00:30:06;1020.13;;;2.625;34.9351
73306;BME280;61530;51.158;0.880;2022-12-18T00:31:10;1020.11;;;2.625;34.3741
73306;BME280;61530;51.158;0.880;2022-12-18T00:32:13;1020.14;;;2.6875;34.2041
73306;BME280;61530;51.158;0.880;2022-12-18T00:33:16;1020.13;;;2.625;36.6727
73306;BME280;61530;51.158;0.880;2022-12-18T00:34:21;1020.15;;;2.6875;36.6772
73306;BME280;61530;51.158;0.880;2022-12-18T00:35:25;1020.17;;;2.6875;35.727
73306;BME280;61530;51.158;0.880;2022-12-18T00:36:31;1020.21;;;2.625;35.3369
73306;BME280;61530;51.158;0.880;2022-12-18T00:37:33;1020.27;;;2.75;34.9118
73306;BME280;61530;51.158;0.880;2022-12-18T00:38:37;1020.3;;;2.625;34.685
73306;BME280;61530;51.158;0.880;2022-12-18T00:39:41;1020.32;;;2.6875;34.4407
73306;BME280;61530;51.158;0.880;2022-12-18T00:40:45;1020.32;;;2.6875;34.7283
73306;BME280;61530;51.158;0.880;2022-12-18T00:41:48;1020.31;;;2.6875;34.5447
73306;BME280;61530;51.158;0.880;2022-12-18T00:42:53;1020.27;;;2.6875;35.2352
73306;BME280;61530;51.158;0.880;2022-12-18T00:43:57;1020.21;;;2.625;34.7355
73306;BME280;61530;51.158;0.880;2022-12-18T00:45:01;1020.18;;;2.625;35.2061
73306;BME280;61530;51.158;0.880;2022-12-18T00:46:05;1020.2;;;2.6875;34.551
73306;BME280;61530;51.158;0.880;2022-12-18T00:47:09;1020.24;;;2.625;35.8976
73306;BME280;61530;51.158;0.880;2022-12-18T00:48:13;1020.29;;;2.625;35.1554
73306;BME280;61530;51.158;0.880;2022-12-18T00:49:18;1020.27;;;2.625;35.4392
73306;BME280;61530;51.158;0.880;2022-12-18T00:50:21;1020.27;;;2.6875;34.974
73306;BME280;61530;51.158;0.880;2022-12-18T00:51:25;1020.26;;;2.6875;34.8172
73306;BME280;61530;51.158;0.880;2022-12-18T00:52:29;1020.27;;;2.75;36.1416
73306;BME280;61530;51.158;0.880;2022-12-18T00:53:33;1020.34;;;2.6875;36.0001
73306;BME280;61530;51.158;0.880;2022-12-18T00:54:36;1020.31;;;2.75;37.4109
73306;BME280;61530;51.158;0.880;2022-12-18T00:55:42;1020.29;;;2.8125;37.8888
73306;BME280;61530;51.158;0.880;2022-12-18T00:56:45;1020.3;;;2.75;38.2148
73306;BME280;61530;51.158;0.880;2022-12-18T00:57:51;1020.26;;;2.75;38.6363
73306;BME280;61530;51.158;0.880;2022-12-18T00:58:52;1020.32;;;2.75;37.4157
73306;BME280;61530;51.158;0.880;2022-12-18T00:59:57;1020.32;;;2.75;39.2536
73306;BME280;61530;51.158;0.880;2022-12-18T01:01:01;1020.34;;;2.8125;40.1433
73306;BME280;61530;51.158;0.880;2022-12-18T01:02:05;1020.27;;;2.75;38.4284
73306;BME280;61530;51.158;0.880;2022-12-18T01:03:10;1020.29;;;2.8125;39.1976
73306;BME280;61530;51.158;0.880;2022-12-18T01:04:13;1020.24;;;2.6875;38.6307
73306;BME280;61530;51.158;0.880;2022-12-18T01:05:17;1020.23;;;2.6875;38.0798
73306;BME280;61530;51.158;0.880;2022-12-18T01:06:21;1020.21;;;2.8125;36.9196
73306;BME280;61530;51.158;0.880;2022-12-18T01:07:24;1020.21;;;2.8125;36.2817
73306;BME280;61530;51.158;0.880;2022-12-18T01:08:29;1020.18;;;2.75;36.4065
73306;BME280;61530;51.158;0.880;2022-12-18T01:09:33;1020.14;;;2.75;35.6142
73306;BME280;61530;51.158;0.880;2022-12-18T01:10:40;1020.24;;;2.6875;35.6654
73306;BME280;61530;51.158;0.880;2022-12-18T01:11:40;1020.21;;;2.6875;38.0969
73306;BME280;61530;51.158;0.880;2022-12-18T01:12:45;1020.25;;;2.6875;38.0348
73306;BME280;61530;51.158;0.880;2022-12-18T01:13:49;1020.24;;;2.75;37.5513
73306;BME280;61530;51.158;0.880;2022-12-18T01:14:53;1020.21;;;2.6875;36.9422
73306;BME280;61530;51.158;0.880;2022-12-18T01:15:56;1020.19;;;2.6875;37.2753
73306;BME280;61530;51.158;0.880;2022-12-18T01:17:01;1020.18;;;2.6875;37.5394
73306;BME280;61530;51.158;0.880;2022-12-18T01:18:05;1020.13;;;2.75;36.9316
73306;BME280;61530;51.158;0.880;2022-12-18T01:19:09;1020.05;;;2.625;36.3941
73306;BME280;61530;51.158;0.880;2022-12-18T01:20:13;1020.01;;;2.75;35.5751
73306;BME280;61530;51.158;0.880;2022-12-18T01:21:17;1020.02;;;2.75;36.0937
73306;BME280;61530;51.158;0.880;2022-12-18T01:22:20;1020.02;;;2.6875;35.8467
73306;BME280;61530;51.158;0.880;2022-12-18T01:23:25;1019.99;;;2.625;35.1137
73306;BME280;61530;51.158;0.880;2022-12-18T01:24:29;1019.96;;;2.6875;36.1925
73306;BME280;61530;51.158;0.880;2022-12-18T01:25:36;1019.95;;;2.6875;35.8153
73306;BME280;61530;51.158;0.880;2022-12-18T01:26:36;1019.96;;;2.6875;37.3376
73306;BME280;61530;51.158;0.880;2022-12-18T01:27:41;1019.96;;;2.6875;37.3881
73306;BME280;61530;51.158;0.880;2022-12-18T01:28:44;1019.96;;;2.6875;39.4435
73306;BME280;61530;51.158;0.880;2022-12-18T01:29:49;1019.95;;;2.6875;39.6404
73306;BME280;61530;51.158;0.880;2022-12-18T01:30:53;1019.93;;;2.6875;39.4383
73306;BME280;61530;51.158;0.880;2022-12-18T01:31:57;1019.95;;;2.75;39.4942
73306;BME280;61530;51.158;0.880;2022-12-18T01:33:00;1019.9;;;2.625;38.3609
73306;BME280;61530;51.158;0.880;2022-12-18T01:34:05;1019.86;;;2.625;37.112
73306;BME280;61530;51.158;0.880;2022-12-18T01:35:09;1019.86;;;2.625;37.0552
73306;BME280;61530;51.158;0.880;2022-12-18T01:36:16;1019.86;;;2.625;36.8183
73306;BME280;61530;51.158;0.880;2022-12-18T01:37:16;1019.81;;;2.625;38.1138
73306;BME280;61530;51.158;0.880;2022-12-18T01:38:21;1019.81;;;2.6875;38.9725
73306;BME280;61530;51.158;0.880;2022-12-18T01:39:24;1019.78;;;2.625;39.0853
73306;BME280;61530;51.158;0.880;2022-12-18T01:40:29;1019.74;;;2.625;39.0964
73306;BME280;61530;51.158;0.880;2022-12-18T01:41:34;1019.75;;;2.6875;37.624
73306;BME280;61530;51.158;0.880;2022-12-18T01:42:37;1019.78;;;2.6875;37.2972
73306;BME280;61530;51.158;0.880;2022-12-18T01:43:42;1019.77;;;2.6875;37.2576
73306;BME280;61530;51.158;0.880;2022-12-18T01:44:58;1019.74;;;2.625;36.5014
73306;BME280;61530;51.158;0.880;2022-12-18T01:45:48;1019.75;;;2.6875;35.9491
73306;BME280;61530;51.158;0.880;2022-12-18T01:46:53;1019.74;;;2.625;36.0447
73306;BME280;61530;51.158;0.880;2022-12-18T01:47:59;1019.76;;;2.5625;36.6823
73306;BME280;61530;51.158;0.880;2022-12-18T01:49:01;1019.72;;;2.625;36.0967
73306;BME280;61530;51.158;0.880;2022-12-18T01:50:09;1019.7;;;2.625;36.2485
73306;BME280;61530;51.158;0.880;2022-12-18T01:51:10;1019.68;;;2.6875;35.7171
73306;BME280;61530;51.158;0.880;2022-12-18T01:52:13;1019.68;;;2.5625;36.2434
73306;BME280;61530;51.158;0.880;2022-12-18T01:53:19;1019.66;;;2.625;37.3821
73306;BME280;61530;51.158;0.880;2022-12-18T01:54:20;1019.67;;;2.625;37.9338
73306;BME280;61530;51.158;0.880;2022-12-18T01:55:27;1019.68;;;2.625;37.6298
73306;BME280;61530;51.158;0.880;2022-12-18T01:56:28;1019.71;;;2.625;38.1418
73306;BME280;61530;51.158;0.880;2022-12-18T01:57:33;1019.69;;;2.625;37.4836
73306;BME280;61530;51.158;0.880;2022-12-18T01:58:43;1019.73;;;2.6875;36.7171
73306;BME280;61530;51.158;0.880;2022-12-18T01:59:43;1019.68;;;2.6875;37.6524
73306;BME280;61530;51.158;0.880;2022-12-18T02:00:45;1019.63;;;2.6875;38.8664
73306;BME280;61530;51.158;0.880;2022-12-18T02:01:49;1019.67;;;2.75;41.8909
73306;BME280;61530;51.158;0.880;2022-12-18T02:02:53;1019.7;;;2.6875;39.9256
73306;BME280;61530;51.158;0.880;2022-12-18T02:04:19;1019.67;;;2.6875;39.3711
73306;BME280;61530;51.158;0.880;2022-12-18T02:05:01;1019.63;;;2.6875;39.1245
73306;BME280;61530;51.158;0.880;2022-12-18T02:06:10;1019.67;;;2.6875;39.0907
73306;BME280;61530;51.158;0.880;2022-12-18T02:07:16;1019.68;;;2.6875;38.7148
73306;BME280;61530;51.158;0.880;2022-12-18T02:08:17;1019.72;;;2.6875;38.9785
73306;BME280;61530;51.158;0.880;2022-12-18T02:09:20;1019.72;;;2.6875;39.6857
73306;BME280;61530;51.158;0.880;2022-12-18T02:10:26;1019.7;;;2.6875;39.0235
73306;BME280;61530;51.158;0.880;2022-12-18T02:11:34;1019.72;;;2.6875;39.147
73306;BME280;61530;51.158;0.880;2022-12-18T02:12:37;1019.71;;;2.6875;38.4903
73306;BME280;61530;51.158;0.880;2022-12-18T02:13:38;1019.7;;;2.6875;37.63
73306;BME280;61530;51.158;0.880;2022-12-18T02:14:40;1019.63;;;2.75;38.9452
73306;BME280;61530;51.158;0.880;2022-12-18T02:15:46;1019.61;;;2.625;38.3385
73306;BME280;61530;51.158;0.880;2022-12-18T02:16:52;1019.6;;;2.625;37.2806
73306;BME280;61530;51.158;0.880;2022-12-18T02:17:54;1019.63;;;2.6875;36.9761
73306;BME280;61530;51.158;0.880;2022-12-18T02:18:57;1019.61;;;2.6875;38.3947
73306;BME280;61530;51.158;0.880;2022-12-18T02:20:06;1019.58;;;2.625;37.5171
73306;BME280;61530;51.158;0.880;2022-12-18T02:21:09;1019.56;;;2.6875;37.7029
73306;BME280;61530;51.158;0.880;2022-12-18T02:22:17;1019.63;;;2.6875;36.919
73306;BME280;61530;51.158;0.880;2022-12-18T02:23:19;1019.6;;;2.625;36.6815
73306;BME280;61530;51.158;0.880;2022-12-18T02:24:23;1019.58;;;2.6875;36.27
73306;BME280;61530;51.158;0.880;2022-12-18T02:25:28;1019.6;;;2.6875;36.1291
73306;BME280;61530;51.158;0.880;2022-12-18T02:26:23;1019.67;;;2.625;36.2242
73306;BME280;61530;51.158;0.880;2022-12-18T02:27:26;1019.69;;;2.6875;35.5517
73306;BME280;61530;51.158;0.880;2022-12-18T02:28:32;1019.67;;;2.6875;35.3029
73306;BME280;61530;51.158;0.880;2022-12-18T02:29:39;1019.64;;;2.625;35.1936
73306;BME280;61530;51.158;0.880;2022-12-18T02:30:38;1019.68;;;2.6875;34.9165
73306;BME280;61530;51.158;0.880;2022-12-18T02:31:44;1019.71;;;2.625;34.7136
73306;BME280;61530;51.158;0.880;2022-12-18T02:32:48;1019.72;;;2.6875;34.9164
73306;BME280;61530;51.158;0.880;2022-12-18T02:33:51;1019.76;;;2.6875;35.4157
73306;BME280;61530;51.158;0.880;2022-12-18T02:34:55;1019.75;;;2.6875;35.3669
73306;BME280;61530;51.158;0.880;2022-12-18T02:35:58;1019.73;;;2.625;35.8913
73306;BME280;61530;51.158;0.880;2022-12-18T02:37:03;1019.71;;;2.625;35.6652
73306;BME280;61530;51.158;0.880;2022-12-18T02:38:06;1019.75;;;2.625;34.7161
73306;BME280;61530;51.158;0.880;2022-12-18T02:39:11;1019.75;;;2.6875;35.4901
73306;BME280;61530;51.158;0.880;2022-12-18T02:40:14;1019.75;;;2.625;35.1757
73306;BME280;61530;51.158;0.880;2022-12-18T02:41:17;1019.77;;;2.625;37.8777
73306;BME280;61530;51.158;0.880;2022-12-18T02:42:22;1019.8;;;2.5625;36.8191
73306;BME280;61530;51.158;0.880;2022-12-18T02:43:24;1019.81;;;2.625;36.8865
73306;BME280;61530;51.158;0.880;2022-12-18T02:44:29;1019.85;;;2.625;37.9392
73306;BME280;61530;51.158;0.880;2022-12-18T02:45:32;1019.88;;;2.625;37.3589
73306;BME280;61530;51.158;0.880;2022-12-18T02:46:41;1019.87;;;2.625;37.1113
73306;BME280;61530;51.158;0.880;2022-12-18T02:47:45;1019.89;;;2.5625;36.2757
73306;BME280;61530;51.158;0.880;2022-12-18T02:48:45;1019.89;;;2.5625;37.0822
73306;BME280;61530;51.158;0.880;2022-12-18T02:49:58;1019.89;;;2.625;35.9802
73306;BME280;61530;51.158;0.880;2022-12-18T02:51:00;1019.88;;;2.625;35.9284
73306;BME280;61530;51.158;0.880;2022-12-18T02:52:04;1019.93;;;2.625;37.0711
73306;BME280;61530;51.158;0.880;2022-12-18T02:53:09;1019.89;;;2.6875;38.0574
73306;BME280;61530;51.158;0.880;2022-12-18T02:54:09;1019.93;;;2.625;37.849
73306;BME280;61530;51.158;0.880;2022-12-18T02:55:19;1019.96;;;2.6875;38.2767
73306;BME280;61530;51.158;0.880;2022-12-18T02:56:15;1019.96;;;2.625;37.3712
73306;BME280;61530;51.158;0.880;2022-12-18T02:57:24;1020.01;;;2.6875;39.8429
73306;BME280;61530;51.158;0.880;2022-12-18T02:58:26;1019.98;;;2.625;41.0281
73306;BME280;61530;51.158;0.880;2022-12-18T02:59:29;1019.99;;;2.625;42.5244
73306;BME280;61530;51.158;0.880;2022-12-18T03:00:31;1020.01;;;2.625;41.0979
73306;BME280;61530;51.158;0.880;2022-12-18T03:01:40;1020.03;;;2.5625;39.782
73306;BME280;61530;51.158;0.880;2022-12-18T03:02:41;1020.05;;;2.5625;39.2885
73306;BME280;61530;51.158;0.880;2022-12-18T03:03:44;1020.05;;;2.5625;39.1815
73306;BME280;61530;51.158;0.880;2022-12-18T03:04:50;1020.03;;;2.5625;38.3047
73306;BME280;61530;51.158;0.880;2022-12-18T03:05:51;1020.01;;;2.5625;37.8543
73306;BME280;61530;51.158;0.880;2022-12-18T03:06:56;1020.01;;;2.5625;38.3553
73306;BME280;61530;51.158;0.880;2022-12-18T03:08:00;1020.04;;;2.5625;39.6239
73306;BME280;61530;51.158;0.880;2022-12-18T03:09:04;1020.04;;;2.625;38.316
73306;BME280;61530;51.158;0.880;2022-12-18T03:10:08;1020.03;;;2.625;37.3133
73306;BME280;61530;51.158;0.880;2022-12-18T03:11:11;1020.05;;;2.75;36.4154
73306;BME280;61530;51.158;0.880;2022-12-18T03:12:17;1020.1;;;2.6875;35.9173
73306;BME280;61530;51.158;0.880;2022-12-18T03:13:20;1020.08;;;2.625;35.3216
73306;BME280;61530;51.158;0.880;2022-12-18T03:14:22;1020.07;;;2.625;34.7328
73306;BME280;61530;51.158;0.880;2022-12-18T03:15:29;1020.04;;;2.6875;34.9304
73306;BME280;61530;51.158;0.880;2022-12-18T03:16:31;1020.04;;;2.6875;34.7226
73306;BME280;61530;51.158;0.880;2022-12-18T03:17:34;1020.0;;;2.6875;34.9152
73306;BME280;61530;51.158;0.880;2022-12-18T03:18:40;1019.97;;;2.6875;35.3022
73306;BME280;61530;51.158;0.880;2022-12-18T03:19:41;1019.94;;;2.75;36.3988
73306;BME280;61530;51.158;0.880;2022-12-18T03:20:47;1019.98;;;2.6875;35.2062
73306;BME280;61530;51.158;0.880;2022-12-18T03:21:53;1019.98;;;2.625;36.5919
73306;BME280;61530;51.158;0.880;2022-12-18T03:22:59;1019.96;;;2.6875;36.3878
73306;BME280;61530;51.158;0.880;2022-12-18T03:23:57;1019.97;;;2.6875;36.3587
73306;BME280;61530;51.158;0.880;2022-12-18T03:25:04;1019.99;;;2.625;36.2021
73306;BME280;61530;51.158;0.880;2022-12-18T03:26:09;1020.0;;;2.6875;37.7984
73306;BME280;61530;51.158;0.880;2022-12-18T03:27:14;1019.99;;;2.625;36.7765
73306;BME280;61530;51.158;0.880;2022-12-18T03:28:15;1020.01;;;2.6875;35.7998
73306;BME280;61530;51.158;0.880;2022-12-18T03:29:21;1020.07;;;2.6875;35.7542
73306;BME280;61530;51.158;0.880;2022-12-18T03:30:21;1020.07;;;2.75;35.6684
73306;BME280;61530;51.158;0.880;2022-12-18T03:31:26;1020.05;;;2.6875;35.6392
73306;BME280;61530;51.158;0.880;2022-12-18T03:32:31;1020.03;;;2.6875;35.3828
73306;BME280;61530;51.158;0.880;2022-12-18T03:33:39;1020.0;;;2.75;34.9604
73306;BME280;61530;51.158;0.880;2022-12-18T03:34:39;1020.0;;;2.6875;35.1873
73306;BME280;61530;51.158;0.880;2022-12-18T03:35:42;1019.97;;;2.75;35.4451
73306;BME280;61530;51.158;0.880;2022-12-18T03:36:44;1019.92;;;2.6875;34.8225
73306;BME280;61530;51.158;0.880;2022-12-18T03:37:49;1019.87;;;2.6875;35.1414
73306;BME280;61530;51.158;0.880;2022-12-18T03:38:53;1019.84;;;2.6875;33.9524
73306;BME280;61530;51.158;0.880;2022-12-18T03:39:57;1019.76;;;2.6875;34.9498
73306;BME280;61530;51.158;0.880;2022-12-18T03:41:07;1019.72;;;2.75;35.0846
73306;BME280;61530;51.158;0.880;2022-12-18T03:42:13;1019.67;;;2.75;35.6121
73306;BME280;61530;51.158;0.880;2022-12-18T03:43:11;1019.66;;;2.6875;35.7711
73306;BME280;61530;51.158;0.880;2022-12-18T03:44:17;1019.6;;;2.6875;35.2835
73306;BME280;61530;51.158;0.880;2022-12-18T03:45:22;1019.61;;;2.6875;35.7185
73306;BME280;61530;51.158;0.880;2022-12-18T03:46:27;1019.59;;;2.625;36.5679
73306;BME280;61530;51.158;0.880;2022-12-18T03:47:28;1019.62;;;2.625;35.8161
73306;BME280;61530;51.158;0.880;2022-12-18T03:48:31;1019.65;;;2.625;35.7822
73306;BME280;61530;51.158;0.880;2022-12-18T03:49:36;1019.64;;;2.625;35.7476
73306;BME280;61530;51.158;0.880;2022-12-18T03:50:43;1019.66;;;2.625;35.575
73306;BME280;61530;51.158;0.880;2022-12-18T03:51:45;1019.62;;;2.625;36.1063
73306;BME280;61530;51.158;0.880;2022-12-18T03:52:51;1019.62;;;2.6875;36.4326
73306;BME280;61530;51.158;0.880;2022-12-18T03:53:52;1019.64;;;2.6875;35.2747
73306;BME280;61530;51.158;0.880;2022-12-18T03:54:55;1019.62;;;2.6875;35.9905
73306;BME280;61530;51.158;0.880;2022-12-18T03:55:59;1019.61;;;2.6875;35.7188
73306;BME280;61530;51.158;0.880;2022-12-18T03:57:04;1019.56;;;2.6875;35.4082
73306;BME280;61530;51.158;0.880;2022-12-18T03:58:06;1019.56;;;2.6875;34.5786
73306;BME280;61530;51.158;0.880;2022-12-18T03:59:10;1019.57;;;2.75;35.2471
73306;BME280;61530;51.158;0.880;2022-12-18T04:00:15;1019.56;;;2.6875;36.2399
73306;BME280;61530;51.158;0.880;2022-12-18T04:01:18;1019.55;;;2.625;35.9576
73306;BME280;61530;51.158;0.880;2022-12-18T04:02:23;1019.53;;;2.625;35.5081
73306;BME280;61530;51.158;0.880;2022-12-18T04:03:26;1019.51;;;2.6875;35.7095
73306;BME280;61530;51.158;0.880;2022-12-18T04:04:29;1019.45;;;2.6875;35.6593
73306;BME280;61530;51.158;0.880;2022-12-18T04:05:34;1019.43;;;2.6875;35.9594
73306;BME280;61530;51.158;0.880;2022-12-18T04:06:37;1019.39;;;2.6875;35.9496
73306;BME280;61530;51.158;0.880;2022-12-18T04:07:42;1019.45;;;2.6875;36.1619
73306;BME280;61530;51.158;0.880;2022-12-18T04:08:45;1019.45;;;2.625;35.6321
73306;BME280;61530;51.158;0.880;2022-12-18T04:09:50;1019.47;;;2.625;35.9007
73306;BME280;61530;51.158;0.880;2022-12-18T04:10:52;1019.43;;;2.625;34.8339
73306;BME280;61530;51.158;0.880;2022-12-18T04:11:57;1019.43;;;2.625;35.6061
73306;BME280;61530;51.158;0.880;2022-12-18T04:13:01;1019.35;;;2.625;35.495
73306;BME280;61530;51.158;0.880;2022-12-18T04:14:05;1019.32;;;2.625;34.7967
73306;BME280;61530;51.158;0.880;2022-12-18T04:15:09;1019.28;;;2.625;35.5517
73306;BME280;61530;51.158;0.880;2022-12-18T04:16:13;1019.27;;;2.6875;35.5622
73306;BME280;61530;51.158;0.880;2022-12-18T04:17:17;1019.23;;;2.625;34.7919
73306;BME280;61530;51.158;0.880;2022-12-18T04:18:21;1019.3;;;2.6875;34.5162
73306;BME280;61530;51.158;0.880;2022-12-18T04:19:24;1019.29;;;2.625;35.3117
73306;BME280;61530;51.158;0.880;2022-12-18T04:20:29;1019.33;;;2.625;34.5612
73306;BME280;61530;51.158;0.880;2022-12-18T04:21:32;1019.3;;;2.6875;34.566
73306;BME280;61530;51.158;0.880;2022-12-18T04:22:37;1019.32;;;2.5625;34.3317
73306;BME280;61530;51.158;0.880;2022-12-18T04:23:40;1019.32;;;2.6875;34.0762
73306;BME280;61530;51.158;0.880;2022-12-18T04:24:45;1019.33;;;2.625;34.1835
73306;BME280;61530;51.158;0.880;2022-12-18T04:25:48;1019.33;;;2.625;34.224
73306;BME280;61530;51.158;0.880;2022-12-18T04:26:53;1019.37;;;2.625;34.3934
73306;BME280;61530;51.158;0.880;2022-12-18T04:27:56;1019.35;;;2.625;33.657
73306;BME280;61530;51.158;0.880;2022-12-18T04:29:01;1019.36;;;2.625;33.8103
73306;BME280;61530;51.158;0.880;2022-12-18T04:30:06;1019.37;;;2.6875;34.1799
73306;BME280;61530;51.158;0.880;2022-12-18T04:31:09;1019.33;;;2.625;33.8423
73306;BME280;61530;51.158;0.880;2022-12-18T04:32:12;1019.31;;;2.625;33.9538
73306;BME280;61530;51.158;0.880;2022-12-18T04:33:18;1019.28;;;2.625;34.2238
73306;BME280;61530;51.158;0.880;2022-12-18T04:34:21;1019.29;;;2.6875;33.8621
73306;BME280;61530;51.158;0.880;2022-12-18T04:35:25;1019.24;;;2.625;33.5763
73306;BME280;61530;51.158;0.880;2022-12-18T04:36:29;1019.24;;;2.6875;33.6417
73306;BME280;61530;51.158;0.880;2022-12-18T04:37:33;1019.22;;;2.625;33.6303
73306;BME280;61530;51.158;0.880;2022-12-18T04:38:36;1019.17;;;2.625;33.5668
73306;BME280;61530;51.158;0.880;2022-12-18T04:39:41;1019.14;;;2.625;33.8229
73306;BME280;61530;51.158;0.880;2022-12-18T04:40:44;1019.14;;;2.6875;33.2108
73306;BME280;61530;51.158;0.880;2022-12-18T04:41:49;1019.12;;;2.625;34.0551
73306;BME280;61530;51.158;0.880;2022-12-18T04:42:52;1019.08;;;2.625;34.4031
73306;BME280;61530;51.158;0.880;2022-12-18T04:43:57;1019.07;;;2.5625;33.7731
73306;BME280;61530;51.158;0.880;2022-12-18T04:45:00;1019.05;;;2.625;34.0693
73306;BME280;61530;51.158;0.880;2022-12-18T04:46:07;1019.08;;;2.5625;33.5714
73306;BME280;61530;51.158;0.880;2022-12-18T04:47:08;1019.08;;;2.625;33.9439
73306;BME280;61530;51.158;0.880;2022-12-18T04:48:13;1019.05;;;2.5625;33.7266
73306;BME280;61530;51.158;0.880;2022-12-18T04:49:16;1019.03;;;2.625;33.558
73306;BME280;61530;51.158;0.880;2022-12-18T04:50:21;1018.97;;;2.625;33.7504
73306;BME280;61530;51.158;0.880;2022-12-18T04:51:24;1018.96;;;2.625;33.6081
73306;BME280;61530;51.158;0.880;2022-12-18T04:52:29;1018.95;;;2.625;33.822
73306;BME280;61530;51.158;0.880;2022-12-18T04:53:33;1018.96;;;2.625;33.4423
73306;BME280;61530;51.158;0.880;2022-12-18T04:54:37;1019.01;;;2.625;33.6974
73306;BME280;61530;51.158;0.880;2022-12-18T04:55:40;1019.04;;;2.625;33.1091
73306;BME280;61530;51.158;0.880;2022-12-18T04:56:45;1019.06;;;2.625;33.1945
73306;BME280;61530;51.158;0.880;2022-12-18T04:57:48;1019.07;;;2.625;33.7736
73306;BME280;61530;51.158;0.880;2022-12-18T04:58:53;1019.09;;;2.6875;33.2638
73306;BME280;61530;51.158;0.880;2022-12-18T04:59:56;1019.12;;;2.625;34.181
73306;BME280;61530;51.158;0.880;2022-12-18T05:01:01;1019.13;;;2.625;32.8424
73306;BME280;61530;51.158;0.880;2022-12-18T05:02:04;1019.14;;;2.625;33.1739
73306;BME280;61530;51.158;0.880;2022-12-18T05:03:09;1019.14;;;2.625;33.1048
73306;BME280;61530;51.158;0.880;2022-12-18T05:04:12;1019.07;;;2.625;33.0761
73306;BME280;61530;51.158;0.880;2022-12-18T05:05:17;1019.04;;;2.625;33.4096
73306;BME280;61530;51.158;0.880;2022-12-18T05:06:21;1019.0;;;2.5625;32.6274
73306;BME280;61530;51.158;0.880;2022-12-18T05:07:25;1018.95;;;2.625;32.7684
73306;BME280;61530;51.158;0.880;2022-12-18T05:08:28;1018.93;;;2.6875;32.4917
73306;BME280;61530;51.158;0.880;2022-12-18T05:09:33;1018.87;;;2.5625;33.1513
73306;BME280;61530;51.158;0.880;2022-12-18T05:10:36;1018.83;;;2.625;32.928
73306;BME280;61530;51.158;0.880;2022-12-18T05:11:41;1018.82;;;2.5625;33.3291
73306;BME280;61530;51.158;0.880;2022-12-18T05:12:44;1018.77;;;2.625;33.7996
73306;BME280;61530;51.158;0.880;2022-12-18T05:13:49;1018.73;;;2.625;33.6478
73306;BME280;61530;51.158;0.880;2022-12-18T05:14:52;1018.68;;;2.625;33.7894
73306;BME280;61530;51.158;0.880;2022-12-18T05:15:57;1018.67;;;2.625;34.2059
73306;BME280;61530;51.158;0.880;2022-12-18T05:17:00;1018.64;;;2.5625;34.2867
73306;BME280;61530;51.158;0.880;2022-12-18T05:18:05;1018.6;;;2.5625;34.4513
73306;BME280;61530;51.158;0.880;2022-12-18T05:19:08;1018.6;;;2.625;34.2476
73306;BME280;61530;51.158;0.880;2022-12-18T05:20:13;1018.59;;;2.625;35.1358
73306;BME280;61530;51.158;0.880;2022-12-18T05:21:16;1018.56;;;2.5625;33.9838
73306;BME280;61530;51.158;0.880;2022-12-18T05:22:21;1018.55;;;2.5625;33.8683
73306;BME280;61530;51.158;0.880;2022-12-18T05:23:25;1018.53;;;2.5625;33.2724
73306;BME280;61530;51.158;0.880;2022-12-18T05:24:29;1018.54;;;2.5625;34.1841
73306;BME280;61530;51.158;0.880;2022-12-18T05:25:32;1018.49;;;2.5625;33.7444
73306;BME280;61530;51.158;0.880;2022-12-18T05:26:37;1018.46;;;2.5;33.779
73306;BME280;61530;51.158;0.880;2022-12-18T05:27:41;1018.43;;;2.5;34.2065
73306;BME280;61530;51.158;0.880;2022-12-18T05:28:45;1018.4;;;2.5625;33.5561
73306;BME280;61530;51.158;0.880;2022-12-18T05:29:48;1018.45;;;2.5625;33.557
73306;BME280;61530;51.158;0.880;2022-12-18T05:30:55;1018.42;;;2.5625;34.1713
73306;BME280;61530;51.158;0.880;2022-12-18T05:31:56;1018.45;;;2.5;33.7642
73306;BME280;61530;51.158;0.880;2022-12-18T05:33:01;1018.48;;;2.5;33.4691